Time;durP1;ratioP1;P1;durP2;ratioP2;P2;SDS_P1;SDS_P2;PMS_P1;PMS_P2;Temp;Humidity;BMP_temperature;BMP_pressure;BME280_temperature;BME280_humidity;BME280_pressure;Samples;Min_cycle;Max_cycle;Signal;HPM_P1;HPM_P2
2022/03/28 00:01:04;;;;;;;7.70;3.70;;;;;;;0.41;42.02;102469.18;106876;1254;74564;-65
2022/03/28 00:03:33;;;;;;;10.00;4.30;;;;;;;0.38;43.81;102459.59;106851;1253;60308;-65
2022/03/28 00:06:03;;;;;;;9.80;3.60;;;;;;;0.30;44.04;102460.98;106988;1254;59940;-66
2022/03/28 00:08:33;;;;;;;6.90;4.00;;;;;;;0.28;44.31;102457.73;106940;1254;72678;-64
2022/03/28 00:11:03;;;;;;;10.10;4.10;;;;;;;0.26;44.72;102461.14;106877;1252;72562;-64
2022/03/28 00:13:33;;;;;;;8.50;4.00;;;;;;;0.22;44.62;102459.80;106843;1253;70951;-64
2022/03/28 00:16:03;;;;;;;6.80;4.00;;;;;;;0.19;44.97;102456.70;106956;1253;73399;-64
2022/03/28 00:18:32;;;;;;;7.80;4.10;;;;;;;0.14;44.89;102455.34;106901;1252;59894;-64
2022/03/28 00:21:01;;;;;;;7.10;3.70;;;;;;;0.12;45.88;102451.41;106750;1254;61304;-65
2022/03/28 00:23:32;;;;;;;8.10;3.80;;;;;;;0.09;44.20;102453.10;106881;1254;74757;-64
2022/03/28 00:26:00;;;;;;;8.30;3.60;;;;;;;0.03;44.36;102452.61;106997;1252;73487;-66
2022/03/28 00:28:29;;;;;;;7.50;3.50;;;;;;;-0.02;44.76;102454.33;106956;1253;70531;-64
2022/03/28 00:30:58;;;;;;;10.10;4.00;;;;;;;-0.10;45.20;102445.77;106980;1254;75304;-65
2022/03/28 00:33:27;;;;;;;8.70;4.10;;;;;;;-0.17;45.64;102449.20;107094;1254;60433;-64
2022/03/28 00:35:57;;;;;;;9.90;3.40;;;;;;;-0.24;45.73;102449.70;107082;1254;62845;-68
2022/03/28 00:38:26;;;;;;;8.70;3.70;;;;;;;-0.32;46.08;102454.84;107067;1252;75194;-67
2022/03/28 00:40:54;;;;;;;9.90;3.80;;;;;;;-0.37;46.22;102455.18;106904;1254;73692;-66
2022/03/28 00:43:24;;;;;;;9.20;4.10;;;;;;;-0.42;46.48;102456.02;106851;1254;71899;-65
2022/03/28 00:45:53;;;;;;;11.60;4.00;;;;;;;-0.45;46.76;102455.35;106962;1254;75266;-61
2022/03/28 00:48:21;;;;;;;8.10;4.00;;;;;;;-0.50;46.90;102452.61;107058;1254;61258;-61
2022/03/28 00:50:51;;;;;;;10.00;4.10;;;;;;;-0.53;46.99;102451.23;106955;1254;60801;-64
2022/03/28 00:53:20;;;;;;;7.90;3.70;;;;;;;-0.57;46.28;102451.90;107071;1252;74662;-62
2022/03/28 00:55:49;;;;;;;6.90;3.90;;;;;;;-0.65;46.25;102448.14;107165;1252;71544;-64
2022/03/28 00:58:18;;;;;;;9.60;4.40;;;;;;;-0.72;47.33;102446.23;107135;1253;70374;-64
2022/03/28 01:00:47;;;;;;;9.80;3.50;;;;;;;-0.76;47.17;102447.24;107062;1253;72875;-65
2022/03/28 01:03:16;;;;;;;6.80;4.10;;;;;;;-0.79;47.48;102450.84;107222;1253;60464;-64
2022/03/28 01:05:46;;;;;;;10.40;3.90;;;;;;;-0.84;47.27;102446.20;107097;1253;59528;-67
2022/03/28 01:08:15;;;;;;;7.30;4.10;;;;;;;-0.88;47.49;102444.83;107288;1251;71354;-65
2022/03/28 01:10:49;;;;;;;10.90;4.30;;;;;;;-0.92;47.40;102448.24;107109;1254;70741;-66
2022/03/28 01:13:19;;;;;;;7.30;3.70;;;;;;;-0.99;47.60;102445.30;106952;1254;70563;-67
2022/03/28 01:15:47;;;;;;;8.30;4.30;;;;;;;-1.04;47.85;102443.07;107045;1253;73771;-66
2022/03/28 01:18:17;;;;;;;7.30;3.40;;;;;;;-1.06;48.32;102441.00;107203;1253;61966;-67
2022/03/28 01:20:46;;;;;;;8.30;4.20;;;;;;;-1.07;49.11;102442.38;107200;1251;61690;-65
2022/03/28 01:23:15;;;;;;;8.60;3.80;;;;;;;-1.09;49.08;102439.61;107225;1251;74435;-65
2022/03/28 01:25:48;;;;;;;8.00;4.20;;;;;;;-1.14;48.86;102442.34;107075;1253;72997;-66
2022/03/28 01:28:17;;;;;;;;;;;;;;;-1.17;49.18;102444.56;107236;1251;70270;-60
2022/03/28 01:30:47;;;;;;;6.20;3.80;;;;;;;-1.21;47.41;102440.27;107101;1253;74054;-61
2022/03/28 01:33:17;;;;;;;7.30;3.90;;;;;;;-1.26;47.27;102437.52;107121;1252;61249;-62
2022/03/28 01:35:46;;;;;;;9.30;4.30;;;;;;;-1.32;47.21;102435.95;107003;1254;59074;-62
2022/03/28 01:38:19;;;;;;;9.00;4.20;;;;;;;-1.40;46.56;102430.45;106914;1254;72876;-63
2022/03/28 01:40:51;;;;;;;10.70;4.00;;;;;;;-1.43;48.88;102434.02;106979;1254;72199;-64
2022/03/28 01:43:21;;;;;;;6.80;4.00;;;;;;;-1.41;48.89;102431.48;107047;1254;70690;-64
2022/03/28 01:45:50;;;;;;;7.30;3.90;;;;;;;-1.45;48.66;102430.08;107044;1254;72327;-63
2022/03/28 01:48:19;;;;;;;9.20;4.30;;;;;;;-1.47;48.36;102432.98;106978;1254;59788;-66
2022/03/28 01:50:48;;;;;;;9.70;4.30;;;;;;;-1.48;49.57;102429.20;106919;1254;60676;-65
2022/03/28 01:53:17;;;;;;;7.90;3.90;;;;;;;-1.48;49.95;102430.06;106897;1254;72599;-65
2022/03/28 01:55:46;;;;;;;8.90;4.70;;;;;;;-1.48;49.72;102431.43;107073;1254;70866;-66
2022/03/28 01:58:15;;;;;;;8.80;3.80;;;;;;;-1.49;48.68;102426.13;106966;1254;68250;-65
2022/03/28 02:00:45;;;;;;;13.00;4.30;;;;;;;-1.52;48.98;102426.46;107101;1253;71144;-67
2022/03/28 02:03:14;;;;;;;9.30;3.80;;;;;;;-1.53;49.03;102426.62;107050;1254;58946;-64
2022/03/28 02:05:43;;;;;;;8.50;4.60;;;;;;;-1.52;49.72;102423.73;107135;1254;60906;-67
2022/03/28 02:08:12;;;;;;;8.10;4.20;;;;;;;-1.52;50.02;102425.09;107076;1254;72577;-62
2022/03/28 02:10:41;;;;;;;9.90;5.00;;;;;;;-1.53;50.01;102425.77;106960;1254;69614;-63
2022/03/28 02:13:10;;;;;;;11.60;5.40;;;;;;;-1.55;50.16;102419.94;107044;1254;69728;-61
2022/03/28 02:15:39;;;;;;;10.40;5.00;;;;;;;-1.55;50.05;102420.63;107095;1254;71253;-61
2022/03/28 02:18:08;;;;;;;13.20;6.40;;;;;;;-1.55;50.25;102421.31;107122;1254;62100;-61
2022/03/28 02:20:38;;;;;;;12.30;5.30;;;;;;;-1.51;50.86;102422.88;107081;1252;61149;-63
2022/03/28 02:23:07;;;;;;;8.60;4.90;;;;;;;-1.54;49.98;102425.59;107059;1254;71341;-63
2022/03/28 02:25:38;;;;;;;9.40;4.70;;;;;;;-1.57;50.45;102421.83;107078;1254;70373;-62
2022/03/28 02:28:07;;;;;;;11.20;5.30;;;;;;;-1.56;50.43;102417.89;107033;1254;67970;-64
2022/03/28 02:30:37;;;;;;;8.70;4.60;;;;;;;-1.57;51.26;102419.95;106875;1252;74304;-63
2022/03/28 02:33:07;;;;;;;8.60;4.80;;;;;;;-1.62;51.17;102415.98;107114;1253;60500;-63
2022/03/28 02:35:36;;;;;;;9.10;4.60;;;;;;;-1.64;51.54;102408.80;107023;1253;62798;-64
2022/03/28 02:38:05;;;;;;;9.00;5.00;;;;;;;-1.66;51.30;102404.51;107110;1254;71324;-70
2022/03/28 02:40:35;;;;;;;7.90;4.20;;;;;;;-1.67;51.46;102405.20;107164;1254;69547;-69
2022/03/28 02:43:04;;;;;;;7.50;3.90;;;;;;;-1.69;51.52;102400.56;107040;1254;68156;-69
2022/03/28 02:45:37;;;;;;;9.50;4.50;;;;;;;-1.73;51.02;102401.57;106960;1254;74026;-69
2022/03/28 02:48:07;;;;;;;10.50;4.80;;;;;;;-1.77;50.35;102397.77;107007;1253;59259;-71
2022/03/28 02:50:36;;;;;;;10.00;4.90;;;;;;;-1.85;50.29;102400.99;107102;1254;59712;-67
2022/03/28 02:53:05;;;;;;;10.80;4.50;;;;;;;-1.91;50.71;102396.01;106952;1254;74127;-69
2022/03/28 02:55:34;;;;;;;9.90;4.30;;;;;;;-1.94;51.12;102393.24;106966;1254;72303;-68
2022/03/28 02:58:03;;;;;;;10.10;4.70;;;;;;;-1.98;51.23;102390.66;106929;1253;70066;-69
2022/03/28 03:00:32;;;;;;;9.20;4.80;;;;;;;-2.06;50.88;102382.42;106900;1251;72447;-69
2022/03/28 03:03:02;;;;;;;9.30;4.70;;;;;;;-2.11;51.55;102381.54;107016;1251;61362;-69
2022/03/28 03:05:31;;;;;;;11.50;4.90;;;;;;;-2.13;51.99;102377.08;107036;1253;58992;-69
2022/03/28 03:08:00;;;;;;;9.10;4.30;;;;;;;-2.12;51.82;102372.98;106928;1254;73205;-69
2022/03/28 03:10:29;;;;;;;8.40;4.10;;;;;;;-2.18;49.36;102374.48;107015;1251;69968;-69
2022/03/28 03:12:58;;;;;;;8.20;4.40;;;;;;;-2.29;51.06;102374.23;106885;1254;68696;-70
2022/03/28 03:15:27;;;;;;;9.60;4.70;;;;;;;-2.33;52.21;102369.60;106995;1251;74530;-70
2022/03/28 03:17:56;;;;;;;10.10;5.00;;;;;;;-2.40;52.55;102369.02;106763;1254;59010;-69
2022/03/28 03:20:25;;;;;;;14.00;6.70;;;;;;;-2.43;52.87;102368.34;107034;1251;59607;-70
2022/03/28 03:22:54;;;;;;;10.60;5.20;;;;;;;-2.40;52.52;102369.36;106991;1253;69891;-70
2022/03/28 03:25:23;;;;;;;11.80;5.30;;;;;;;-2.40;52.08;102369.71;107030;1251;71025;-69
2022/03/28 03:27:52;;;;;;;11.50;4.50;;;;;;;-2.41;51.79;102372.10;107052;1251;69074;-69
2022/03/28 03:30:21;;;;;;;10.70;5.20;;;;;;;-2.45;51.90;102371.71;107007;1251;74224;-70
2022/03/28 03:32:50;;;;;;;49.20;19.00;;;;;;;-2.48;52.43;102371.02;106971;1254;60135;-70
2022/03/28 03:35:19;;;;;;;12.50;6.40;;;;;;;-2.54;52.17;102369.44;107094;1251;59080;-70
2022/03/28 03:37:50;;;;;;;13.60;6.80;;;;;;;-2.60;53.34;102372.45;106982;1253;71712;-68
2022/03/28 03:40:19;;;;;;;13.60;7.20;;;;;;;-2.66;54.28;102376.33;106982;1253;72462;-71
2022/03/28 03:42:48;;;;;;;15.60;7.90;;;;;;;-2.69;54.57;102378.01;106907;1253;71905;-70
2022/03/28 03:45:17;;;;;;;16.30;7.20;;;;;;;-2.68;54.47;102376.81;106965;1253;74803;-69
2022/03/28 03:47:46;;;;;;;12.20;5.90;;;;;;;-2.70;53.87;102370.66;106932;1254;60701;-69
2022/03/28 03:50:15;;;;;;;14.90;5.90;;;;;;;-2.72;53.26;102372.36;107285;1253;59393;-70
2022/03/28 03:52:44;;;;;;;10.00;5.20;;;;;;;-2.74;52.35;102371.14;107257;1251;71980;-71
2022/03/28 03:55:14;;;;;;;11.70;6.10;;;;;;;-2.78;52.19;102367.70;107102;1251;71077;-70
2022/03/28 03:57:43;;;;;;;10.50;5.70;;;;;;;-2.78;54.81;102363.24;107005;1253;70853;-71
2022/03/28 04:00:13;;;;;;;13.10;6.50;;;;;;;-2.81;53.72;102353.50;107011;1254;73862;-70
2022/03/28 04:02:42;;;;;;;15.50;5.80;;;;;;;-2.80;53.12;102350.10;106892;1254;61712;-71
2022/03/28 04:05:12;;;;;;;13.20;6.20;;;;;;;-2.80;53.40;102344.48;107092;1252;59919;-71
2022/03/28 04:07:40;;;;;;;14.20;7.20;;;;;;;-2.79;53.73;102345.85;107130;1254;73028;-70
2022/03/28 04:10:10;;;;;;;14.90;7.80;;;;;;;-2.78;54.42;102341.27;107003;1254;71512;-72
2022/03/28 04:12:39;;;;;;;14.40;6.50;;;;;;;-2.77;54.20;102337.70;107099;1254;69718;-70
2022/03/28 04:15:10;;;;;;;16.00;6.80;;;;;;;-2.75;53.77;102332.41;106993;1254;74497;-69
2022/03/28 04:17:44;;;;;;;16.90;7.20;;;;;;;-2.76;53.75;102332.07;107031;1254;61558;-68
2022/03/28 04:20:15;;;;;;;12.30;6.40;;;;;;;-2.73;54.51;102330.05;107269;1252;58895;-72
2022/03/28 04:22:48;;;;;;;15.00;6.60;;;;;;;-2.70;54.44;102338.95;107113;1254;71662;-70
2022/03/28 04:25:17;;;;;;;18.70;7.90;;;;;;;-2.69;54.71;102350.20;107181;1253;71823;-71
2022/03/28 04:27:46;;;;;;;19.00;6.50;;;;;;;-2.69;53.66;102351.23;107291;1253;68863;-69
2022/03/28 04:30:16;;;;;;;11.80;5.90;;;;;;;-2.66;52.50;102353.80;107587;1253;71508;-70
2022/03/28 04:32:45;;;;;;;10.40;5.90;;;;;;;-2.65;52.69;102358.27;107373;1254;61337;-69
2022/03/28 04:35:14;;;;;;;13.30;5.90;;;;;;;-2.61;53.32;102359.48;107309;1254;59683;-73
2022/03/28 04:37:44;;;;;;;12.50;6.10;;;;;;;-2.52;52.54;102364.34;107329;1253;72968;-72
2022/03/28 04:40:16;;;;;;;8.70;4.10;;;;;;;-2.44;51.77;102368.14;107255;1254;73449;-71
2022/03/28 04:42:46;;;;;;;11.40;4.90;;;;;;;-2.33;52.34;102367.56;107398;1254;70424;-72
2022/03/28 04:45:15;;;;;;;14.30;5.50;;;;;;;-2.22;50.46;102366.95;107164;1252;72917;-70
2022/03/28 04:47:44;;;;;;;13.70;5.70;;;;;;;-2.08;50.51;102364.98;107301;1252;62305;-70
2022/03/28 04:50:14;;;;;;;11.00;6.00;;;;;;;-1.93;51.62;102358.75;107462;1252;61874;-72
2022/03/28 04:52:43;;;;;;;13.80;6.10;;;;;;;-1.82;51.28;102358.31;107227;1253;73556;-72
2022/03/28 04:55:13;;;;;;;19.50;6.80;;;;;;;-1.73;50.39;102367.92;107490;1253;72992;-70
2022/03/28 04:57:42;;;;;;;14.30;7.10;;;;;;;-1.63;50.91;102365.59;107388;1251;68262;-72
2022/03/28 05:00:12;;;;;;;21.30;8.60;;;;;;;-1.53;49.96;102360.48;107236;1253;73275;-71
2022/03/28 05:02:41;;;;;;;24.50;9.80;;;;;;;-1.45;49.93;102362.75;107547;1253;58952;-70
2022/03/28 05:05:10;;;;;;;25.10;10.00;;;;;;;-1.34;49.99;102365.52;106862;1253;60861;-71
2022/03/28 05:07:40;;;;;;;25.70;12.10;;;;;;;-1.08;50.05;102365.41;107507;1251;72723;-75
2022/03/28 05:10:09;;;;;;;32.90;17.00;;;;;;;-0.85;49.33;102368.36;106978;1251;73919;-72
2022/03/28 05:12:38;;;;;;;31.00;13.20;;;;;;;-0.63;49.38;102364.61;106862;1253;67365;-72
2022/03/28 05:15:08;;;;;;;22.80;11.30;;;;;;;-0.50;48.30;102359.15;106463;1254;683985;-71
2022/03/28 05:17:37;;;;;;;25.80;12.10;;;;;;;-0.45;47.85;102358.80;107306;1251;59034;-71
2022/03/28 05:20:09;;;;;;;30.60;12.70;;;;;;;-0.39;48.24;102355.37;107107;1253;59684;-72
2022/03/28 05:22:39;;;;;;;24.40;11.50;;;;;;;-0.31;47.59;102347.67;107246;1254;72919;-72
2022/03/28 05:25:09;;;;;;;25.90;12.60;;;;;;;-0.23;47.67;102338.73;107502;1251;70884;-74
2022/03/28 05:27:47;;;;;;;29.30;11.50;;;;;;;-0.14;47.47;102338.05;107487;1253;67863;-73
2022/03/28 05:30:17;;;;;;;28.10;11.80;;;;;;;-0.01;47.09;102345.04;107356;1253;73308;-71
2022/03/28 05:32:46;;;;;;;23.20;12.00;;;;;;;0.14;47.12;102342.77;107438;1251;61195;-71
2022/03/28 05:35:16;;;;;;;24.30;11.40;;;;;;;0.26;46.49;102334.50;107299;1253;59477;-69
2022/03/28 05:37:45;;;;;;;23.80;11.10;;;;;;;0.40;46.70;102330.85;107319;1251;73578;-69
2022/03/28 05:40:16;;;;;;;28.70;12.50;;;;;;;0.57;46.68;102326.98;107374;1251;73761;-69
2022/03/28 05:42:45;;;;;;;28.60;14.40;;;;;;;0.74;46.24;102322.27;107414;1253;71922;-67
2022/03/28 05:45:14;;;;;;;31.60;14.00;;;;;;;0.92;46.20;102323.88;107810;1253;74684;-67
2022/03/28 05:47:43;;;;;;;32.80;16.20;;;;;;;1.11;45.57;102322.20;107167;1253;61063;-68
2022/03/28 05:50:12;;;;;;;32.20;16.90;;;;;;;1.28;44.97;102321.04;107683;1251;61043;-69
2022/03/28 05:52:41;;;;;;;35.40;17.30;;;;;;;1.45;44.85;102317.28;107231;1252;71180;-71
2022/03/28 05:55:10;;;;;;;34.20;17.80;;;;;;;1.62;44.48;102310.95;107116;1253;70765;-69
2022/03/28 05:57:40;;;;;;;31.00;17.40;;;;;;;1.81;43.74;102311.61;107303;1251;69723;-69
2022/03/28 06:00:13;;;;;;;36.80;18.00;;;;;;;2.00;42.71;102307.79;107196;1253;72480;-68
2022/03/28 06:02:43;;;;;;;32.00;15.70;;;;;;;2.26;42.85;102302.86;107856;1251;59770;-66
2022/03/28 06:05:12;;;;;;;32.00;15.80;;;;;;;2.41;42.08;102300.43;106987;1253;61494;-67
2022/03/28 06:07:42;;;;;;;30.40;14.50;;;;;;;2.56;42.00;102299.02;107163;1251;72232;-68
2022/03/28 06:10:11;;;;;;;29.60;14.60;;;;;;;2.72;41.33;102301.55;106943;1253;72840;-67
2022/03/28 06:12:40;;;;;;;27.00;13.50;;;;;;;2.87;41.28;102297.20;107059;1251;68090;-68
2022/03/28 06:15:10;;;;;;;28.10;14.20;;;;;;;3.01;40.85;102289.75;107099;1251;71144;-68
2022/03/28 06:17:39;;;;;;;19.40;12.50;;;;;;;3.20;39.69;102287.71;106954;1253;59639;-66
2022/03/28 06:20:11;;;;;;;21.80;11.10;;;;;;;3.37;37.96;102284.34;106928;1251;60307;-66
2022/03/28 06:22:41;;;;;;;19.80;10.00;;;;;;;3.50;37.49;102280.66;106895;1251;73143;-66
2022/03/28 06:25:11;;;;;;;22.40;10.40;;;;;;;3.66;37.43;102275.73;107040;1252;70397;-70
2022/03/28 06:28:00;;;;;;;19.30;10.70;;;;;;;3.84;37.27;102273.65;107119;1251;68922;-67
2022/03/28 06:30:29;;;;;;;19.10;10.00;;;;;;;3.97;37.21;102257.70;107070;1253;72351;-70
2022/03/28 06:32:58;;;;;;;21.10;10.20;;;;;;;4.16;36.31;102246.62;107176;1251;58928;-66
2022/03/28 06:35:27;;;;;;;19.80;10.80;;;;;;;4.31;35.64;102246.29;107164;1251;58918;-66
2022/03/28 06:37:56;;;;;;;20.50;11.00;;;;;;;4.46;35.96;102243.38;107002;1253;71704;-70
2022/03/28 06:40:27;;;;;;;27.20;11.30;;;;;;;4.63;35.82;102242.82;106907;1253;71074;-69
2022/03/28 06:42:56;;;;;;;16.90;10.20;;;;;;;4.80;35.01;102241.22;106861;1253;68228;-67
2022/03/28 06:45:26;;;;;;;23.90;10.60;;;;;;;4.95;35.81;102246.04;107059;1251;71758;-66
2022/03/28 06:47:56;;;;;;;20.60;10.20;;;;;;;5.12;35.81;102247.00;106953;1253;59307;-67
2022/03/28 06:50:45;;;;;;;20.30;9.50;;;;;;;5.30;36.21;102244.11;107123;1251;62189;-67
2022/03/28 06:53:14;;;;;;;18.10;9.30;;;;;;;5.49;35.93;102241.89;106857;1253;73138;-72
2022/03/28 06:55:44;;;;;;;19.90;10.00;;;;;;;5.67;35.61;102241.73;106980;1251;71524;-71
2022/03/28 06:58:14;;;;;;;19.20;8.70;;;;;;;5.90;34.20;102239.04;107142;1253;71354;-70
2022/03/28 07:00:44;;;;;;;18.30;10.20;;;;;;;6.09;33.51;102231.40;107133;1253;73140;-70
2022/03/28 07:03:14;;;;;;;17.20;9.00;;;;;;;6.33;32.95;102229.66;107136;1251;58922;-70
2022/03/28 07:05:45;;;;;;;19.50;8.90;;;;;;;6.56;30.76;102229.82;107276;1253;60987;-71
2022/03/28 07:08:14;;;;;;;14.50;7.50;;;;;;;6.77;30.07;102228.98;107331;1253;73976;-68
2022/03/28 07:10:43;;;;;;;10.40;4.30;;;;;;;7.02;29.79;102223.82;107037;1253;70946;-68
2022/03/28 07:13:12;;;;;;;10.60;4.90;;;;;;;7.18;28.40;102218.77;107129;1251;68111;-69
2022/03/28 07:15:41;;;;;;;12.40;5.80;;;;;;;7.39;29.11;102217.86;107084;1251;72296;-68
2022/03/28 07:18:11;;;;;;;9.50;4.80;;;;;;;7.60;29.19;102214.66;106965;1251;61034;-68
2022/03/28 07:20:43;;;;;;;8.30;3.60;;;;;;;7.81;28.56;102211.16;107109;1251;61414;-71
2022/03/28 07:23:13;;;;;;;9.70;4.00;;;;;;;7.95;26.88;102204.90;107096;1251;73420;-68
2022/03/28 07:25:44;;;;;;;6.40;3.20;;;;;;;8.06;26.45;102202.59;107142;1251;71354;-68
2022/03/28 07:28:15;;;;;;;11.00;3.80;;;;;;;8.18;26.63;102200.20;107022;1251;70385;-68
2022/03/28 07:30:45;;;;;;;11.10;4.20;;;;;;;8.33;26.00;102199.46;106896;1253;73058;-69
2022/03/28 07:33:15;;;;;;;7.80;3.60;;;;;;;8.44;26.07;102199.40;107059;1253;60577;-69
2022/03/28 07:35:45;;;;;;;10.40;3.70;;;;;;;8.53;25.26;102191.23;106979;1253;59275;-69
2022/03/28 07:38:15;;;;;;;7.20;4.00;;;;;;;8.64;25.06;102185.39;106950;1251;73877;-66
2022/03/28 07:40:46;;;;;;;11.40;4.20;;;;;;;8.68;25.35;102182.79;107126;1251;72609;-70
2022/03/28 07:43:16;;;;;;;12.70;4.40;;;;;;;8.75;25.11;102175.04;107198;1251;69164;-69
2022/03/28 07:45:48;;;;;;;6.80;3.70;;;;;;;8.86;25.07;102168.67;106815;1253;72460;-69
2022/03/28 07:48:17;;;;;;;6.50;3.60;;;;;;;9.06;25.14;102170.45;107138;1251;59093;-72
2022/03/28 07:50:47;;;;;;;12.70;4.20;;;;;;;9.17;24.86;102169.07;106960;1253;58912;-70
2022/03/28 07:53:21;;;;;;;11.40;4.70;;;;;;;9.23;24.69;102160.67;107149;1250;71987;-70
2022/03/28 07:55:50;;;;;;;7.90;4.10;;;;;;;9.37;24.43;102158.46;107219;1251;72234;-68
2022/03/28 07:58:20;;;;;;;6.30;2.90;;;;;;;9.35;24.01;102155.63;107114;1253;72079;-69
2022/03/28 08:00:49;;;;;;;9.10;4.40;;;;;;;9.37;23.68;102154.63;107375;1253;74714;-69
2022/03/28 08:03:19;;;;;;;7.20;4.30;;;;;;;9.42;23.80;102155.16;107451;1251;59927;-71
2022/03/28 08:05:49;;;;;;;8.70;3.80;;;;;;;9.32;23.09;102155.59;107273;1251;61233;-70
2022/03/28 08:08:17;;;;;;;10.20;3.60;;;;;;;9.53;23.99;102152.55;107276;1251;73408;-70
2022/03/28 08:10:46;;;;;;;7.50;3.50;;;;;;;9.75;23.24;102153.47;107253;1251;71540;-68
2022/03/28 08:13:15;;;;;;;8.40;4.20;;;;;;;9.76;22.55;102146.98;107111;1251;71979;-69
2022/03/28 08:15:44;;;;;;;7.90;3.60;;;;;;;9.77;22.75;102136.13;107218;1251;74190;-69
2022/03/28 08:18:15;;;;;;;7.20;3.30;;;;;;;9.86;22.70;102129.11;107018;1253;61082;-69
2022/03/28 08:20:44;;;;;;;8.70;3.30;;;;;;;10.02;22.64;102128.16;107100;1253;59675;-67
2022/03/28 08:23:16;;;;;;;7.20;3.90;;;;;;;10.12;21.83;102125.45;107310;1251;73081;-69
2022/03/28 08:25:45;;;;;;;7.90;4.10;;;;;;;10.06;22.15;102118.59;107229;1251;69618;-68
2022/03/28 08:28:16;;;;;;;7.70;4.20;;;;;;;10.18;22.01;102107.59;107068;1253;68730;-71
2022/03/28 08:30:45;;;;;;;10.50;4.00;;;;;;;10.29;22.51;102107.58;107213;1251;74008;-67
2022/03/28 08:33:14;;;;;;;8.20;4.40;;;;;;;10.38;22.26;102101.23;107062;1251;61461;-70
2022/03/28 08:35:43;;;;;;;11.70;5.20;;;;;;;10.47;22.43;102097.99;106909;1251;60703;-67
2022/03/28 08:38:12;;;;;;;11.10;5.50;;;;;;;10.58;22.26;102092.37;107025;1251;75352;-69
2022/03/28 08:40:43;;;;;;;12.40;5.10;;;;;;;10.66;22.14;102090.95;107226;1251;71977;-69
2022/03/28 08:43:17;;;;;;;9.70;4.70;;;;;;;10.73;22.28;102089.39;107256;1251;68737;-71
2022/03/28 08:45:50;;;;;;;14.60;5.20;;;;;;;10.87;21.78;102087.76;107103;1253;71995;-71
2022/03/28 08:48:20;;;;;;;13.30;5.80;;;;;;;10.77;22.16;102084.60;107230;1251;60471;-70
2022/03/28 08:50:52;;;;;;;16.70;6.70;;;;;;;10.89;22.06;102083.16;107031;1253;59781;-69
2022/03/28 08:53:21;;;;;;;12.00;6.60;;;;;;;10.83;22.36;102080.80;107136;1250;71302;-69
2022/03/28 08:55:51;;;;;;;10.80;5.40;;;;;;;10.82;22.21;102073.05;107063;1253;70824;-68
2022/03/28 08:58:21;;;;;;;9.00;4.60;;;;;;;11.07;21.84;102068.59;106756;1253;71015;-71
2022/03/28 09:00:50;;;;;;;9.70;5.80;;;;;;;11.06;21.67;102059.38;106893;1253;75290;-69
2022/03/28 09:03:19;;;;;;;18.00;7.80;;;;;;;11.06;21.86;102053.13;106959;1251;61684;-68
2022/03/28 09:05:49;;;;;;;15.30;8.40;;;;;;;11.11;21.96;102048.32;107068;1251;59662;-71
2022/03/28 09:08:23;;;;;;;16.90;8.60;;;;;;;11.35;21.76;102034.67;107027;1252;73955;-69
2022/03/28 09:10:53;;;;;;;13.90;6.80;;;;;;;11.56;21.64;102030.70;107057;1253;72830;-72
2022/03/28 09:13:22;;;;;;;15.10;7.60;;;;;;;11.69;21.07;102024.22;107229;1251;69661;-69
2022/03/28 09:15:55;;;;;;;11.50;5.80;;;;;;;11.74;21.30;102021.33;106965;1252;72309;-70
2022/03/28 09:18:30;;;;;;;16.10;7.50;;;;;;;11.89;20.97;102015.58;106911;1253;61298;-68
2022/03/28 09:21:06;;;;;;;13.90;7.00;;;;;;;11.96;20.97;102005.95;107103;1251;63064;-70
2022/03/28 09:23:44;;;;;;;11.30;6.40;;;;;;;11.97;20.96;101995.76;107104;1253;72460;-71
2022/03/28 09:26:24;;;;;;;12.00;6.00;;;;;;;12.17;20.58;101998.27;107082;1251;73139;-69
2022/03/28 09:28:58;;;;;;;10.80;6.00;;;;;;;12.20;20.27;101988.98;106949;1251;70679;-70
2022/03/28 09:31:38;;;;;;;10.90;5.90;;;;;;;12.23;20.44;101986.39;107176;1251;73704;-68
2022/03/28 09:34:19;;;;;;;16.00;6.90;;;;;;;12.36;19.95;101975.33;107088;1251;59262;-69
2022/03/28 09:36:56;;;;;;;13.00;7.00;;;;;;;12.34;20.27;101970.02;107135;1253;59730;-69
2022/03/28 09:39:32;;;;;;;11.20;5.70;;;;;;;12.50;19.89;101968.54;107222;1251;72290;-72
2022/03/28 09:42:10;;;;;;;12.10;6.40;;;;;;;12.68;19.22;101966.38;107141;1251;69552;-69
2022/03/28 09:44:42;;;;;;;17.10;7.30;;;;;;;12.65;19.75;101953.08;106992;1253;68688;-71
2022/03/28 09:47:24;;;;;;;10.80;6.00;;;;;;;12.84;19.44;101944.27;106972;1251;73007;-70
2022/03/28 09:49:57;;;;;;;13.70;6.10;;;;;;;13.16;19.53;101944.35;107091;1250;60480;-71
2022/03/28 09:52:28;;;;;;;;;;;;;;;13.46;19.02;101936.44;107231;1251;60837;-70
2022/03/28 09:55:02;;;;;;;10.70;5.90;;;;;;;13.70;18.71;101931.23;107301;1250;73347;-69
2022/03/28 09:57:37;;;;;;;9.20;5.30;;;;;;;13.70;18.21;101924.95;107953;1250;71855;-68
2022/03/28 10:00:47;;;;;;;10.00;4.30;;;;;;;13.84;18.15;101922.27;106840;1251;71500;-71
2022/03/28 10:03:16;;;;;;;10.50;5.00;;;;;;;13.89;17.31;101919.99;106985;1253;72351;-70
2022/03/28 10:05:47;;;;;;;8.80;4.80;;;;;;;13.80;17.53;101913.75;107140;1253;59648;-67
2022/03/28 10:08:17;;;;;;;11.80;4.90;;;;;;;13.85;17.45;101910.08;107094;1251;62334;-72
2022/03/28 10:10:52;;;;;;;8.10;3.40;;;;;;;13.95;16.51;101906.27;107107;1250;73192;-71
2022/03/28 10:13:22;;;;;;;6.50;3.40;;;;;;;13.97;15.99;101901.36;107017;1250;71810;-73
2022/03/28 10:15:51;;;;;;;9.90;5.00;;;;;;;13.94;16.81;101891.42;106910;1253;69190;-70
2022/03/28 10:18:21;;;;;;;9.10;4.20;;;;;;;14.08;17.03;101885.73;106969;1251;70950;-69
2022/03/28 10:20:54;;;;;;;7.90;4.60;;;;;;;14.16;16.65;101882.08;106983;1253;58823;-69
2022/03/28 10:23:33;;;;;;;9.10;4.30;;;;;;;14.12;16.41;101877.48;107216;1250;60032;-69
2022/03/28 10:26:07;;;;;;;12.80;5.70;;;;;;;14.14;16.55;101871.02;107071;1251;71640;-70
2022/03/28 10:28:38;;;;;;;8.30;3.90;;;;;;;14.19;16.84;101869.73;107897;1244;69356;-70
2022/03/28 10:31:19;;;;;;;9.70;4.30;;;;;;;14.48;15.61;101864.23;107855;1243;68923;-70
2022/03/28 10:34:08;;;;;;;10.10;4.50;;;;;;;14.76;16.10;101859.63;107838;1243;73553;-70
2022/03/28 10:36:38;;;;;;;9.70;5.10;;;;;;;15.28;15.39;101863.58;107883;1243;60687;-69
2022/03/28 10:39:36;;;;;;;10.90;4.40;;;;;;;15.49;15.10;101852.17;107933;1244;61104;-72
2022/03/28 10:42:17;;;;;;;10.50;5.20;;;;;;;15.82;15.41;101848.45;107973;1243;75104;-72
2022/03/28 10:45:11;;;;;;;10.10;5.10;;;;;;;16.09;14.44;101849.15;107792;1244;69982;-72
2022/03/28 10:47:44;;;;;;;9.50;5.10;;;;;;;16.50;14.39;101837.15;107757;1243;70624;-72
2022/03/28 10:50:25;;;;;;;10.30;5.50;;;;;;;16.65;14.66;101827.70;107865;1244;74659;-71
2022/03/28 10:53:19;;;;;;;11.40;5.40;;;;;;;16.96;14.60;101817.80;107614;1244;61221;-70
2022/03/28 10:55:56;;;;;;;11.60;4.80;;;;;;;17.28;13.80;101813.94;108066;1243;59689;-73
2022/03/28 10:58:39;;;;;;;9.00;4.70;;;;;;;17.20;13.85;101803.48;108073;1244;72888;-70
2022/03/28 11:01:08;;;;;;;8.70;4.40;;;;;;;17.45;13.44;101798.62;107847;1244;70774;-73
2022/03/28 11:04:00;;;;;;;9.80;5.30;;;;;;;17.93;13.33;101792.42;107953;1244;68407;-73
2022/03/28 11:06:53;;;;;;;13.70;5.00;;;;;;;18.20;13.10;101782.82;107702;1244;73100;-73
2022/03/28 11:10:15;;;;;;;8.50;5.20;;;;;;;18.53;12.98;101778.33;108089;1242;61592;-72
2022/03/28 11:12:51;;;;;;;12.10;5.60;;;;;;;17.92;12.86;101763.78;107572;1243;61158;-72
2022/03/28 11:15:23;;;;;;;11.40;5.40;;;;;;;18.04;12.94;101756.77;107879;1244;73290;-70
2022/03/28 11:17:52;;;;;;;11.10;4.90;;;;;;;18.34;12.66;101756.35;108101;1244;72387;-70
2022/03/28 11:20:25;;;;;;;8.20;4.20;;;;;;;18.52;12.69;101750.52;107899;1244;68724;-73
2022/03/28 11:23:12;;;;;;;8.30;4.60;;;;;;;19.49;11.89;101741.01;108195;1244;75329;-75
2022/03/28 11:25:58;;;;;;;8.30;4.20;;;;;;;19.57;11.78;101741.12;108259;1243;60749;-74
2022/03/28 11:28:28;;;;;;;11.60;4.70;;;;;;;19.45;11.57;101728.81;108027;1244;58904;-74
2022/03/28 11:31:11;;;;;;;7.80;4.60;;;;;;;18.21;12.14;101719.99;107918;1244;73600;-73
2022/03/28 11:33:42;;;;;;;;;;;;;;;19.11;12.32;101716.39;108085;1244;72026;-73